createdAt,value
2017-11-11T00:01:12.473Z,3.53
2017-11-11T00:03:41.476Z,3.43
2017-11-11T00:06:09.731Z,3.30
2017-11-11T00:08:38.740Z,3.57
2017-11-11T00:11:06.985Z,2.80
2017-11-11T00:13:35.230Z,3.10
2017-11-11T00:16:03.470Z,3.27
2017-11-11T00:18:31.711Z,3.90
2017-11-11T00:20:59.955Z,2.60
2017-11-11T00:23:28.190Z,3.07
2017-11-11T00:25:56.466Z,4.17
2017-11-11T00:28:24.714Z,3.67
2017-11-11T00:30:52.961Z,2.87
2017-11-11T00:33:21.195Z,3.77
2017-11-11T00:35:49.435Z,3.27
2017-11-11T00:38:17.671Z,2.43
2017-11-11T00:40:45.919Z,3.57
2017-11-11T00:43:14.153Z,4.47
2017-11-11T00:45:42.407Z,3.50
2017-11-11T00:48:10.642Z,3.10
2017-11-11T00:50:38.883Z,2.90
2017-11-11T00:53:07.123Z,2.60
2017-11-11T00:55:35.392Z,2.87
2017-11-11T00:58:03.631Z,3.43
2017-11-11T01:00:32.634Z,3.03
2017-11-11T01:03:00.875Z,3.40
2017-11-11T01:05:30.618Z,3.90
2017-11-11T01:07:58.862Z,2.40
2017-11-11T01:10:27.101Z,3.30
2017-11-11T01:12:55.344Z,3.23
2017-11-11T01:15:23.582Z,3.00
2017-11-11T01:17:52.599Z,3.10
2017-11-11T01:20:21.605Z,3.63
2017-11-11T01:22:49.871Z,1.67
2017-11-11T01:25:18.874Z,3.53
2017-11-11T01:27:47.872Z,3.00
2017-11-11T01:30:16.127Z,3.47
2017-11-11T01:32:45.128Z,3.53
2017-11-11T01:35:14.130Z,2.90
2017-11-11T01:37:42.375Z,4.20
2017-11-11T01:40:10.614Z,3.70
2017-11-11T01:42:38.842Z,2.10
2017-11-11T01:45:07.865Z,2.40
2017-11-11T01:47:36.095Z,3.07
2017-11-11T01:50:03.638Z,3.00
2017-11-11T01:52:33.392Z,3.10
2017-11-11T01:55:01.635Z,3.97
2017-11-11T01:57:30.658Z,3.20
2017-11-11T01:59:58.894Z,3.30
2017-11-11T02:02:27.146Z,4.20
2017-11-11T02:04:55.388Z,3.17
2017-11-11T02:07:23.631Z,1.90
2017-11-11T02:09:51.978Z,2.60
2017-11-11T02:12:20.285Z,3.10
2017-11-11T02:14:48.514Z,2.00
2017-11-11T02:17:16.780Z,2.97
2017-11-11T02:19:45.018Z,2.17
2017-11-11T02:22:14.024Z,2.60
2017-11-11T02:24:43.034Z,3.57
2017-11-11T02:27:11.267Z,3.50
2017-11-11T02:29:39.516Z,3.37
2017-11-11T02:32:07.757Z,3.93
2017-11-11T02:34:36.002Z,2.80
2017-11-11T02:37:05.011Z,3.03
2017-11-11T02:39:34.032Z,3.57
2017-11-11T02:42:02.263Z,3.03
2017-11-11T02:44:31.293Z,4.70
2017-11-11T02:46:59.535Z,4.07
2017-11-11T02:49:28.655Z,3.70
2017-11-11T02:51:56.899Z,2.90
2017-11-11T02:54:25.914Z,2.65
2017-11-11T02:56:54.166Z,3.70
2017-11-11T02:59:23.174Z,3.47
2017-11-11T03:01:51.426Z,3.12
2017-11-11T03:04:19.668Z,3.73
2017-11-11T03:06:47.929Z,2.63
2017-11-11T03:09:16.167Z,2.60
2017-11-11T03:11:45.168Z,2.60
2017-11-11T03:14:13.411Z,3.77
2017-11-11T03:16:41.646Z,3.63
2017-11-11T03:19:09.897Z,4.20
2017-11-11T03:21:38.903Z,2.30
2017-11-11T03:24:07.165Z,3.03
2017-11-11T03:26:36.154Z,4.13
2017-11-11T03:29:04.408Z,3.40
2017-11-11T03:31:32.660Z,2.60
2017-11-11T03:34:00.903Z,3.73
2017-11-11T03:36:29.139Z,3.70
2017-11-11T03:38:58.166Z,3.67
2017-11-11T03:41:26.413Z,4.00
2017-11-11T03:43:55.421Z,3.80
2017-11-11T03:46:23.674Z,4.30
2017-11-11T03:48:51.916Z,4.77
2017-11-11T03:51:20.167Z,3.83
2017-11-11T03:53:48.411Z,3.47
2017-11-11T03:56:17.429Z,3.33
2017-11-11T03:58:45.670Z,4.93
2017-11-11T04:01:14.694Z,4.00
2017-11-11T04:03:42.936Z,4.97
2017-11-11T04:06:11.953Z,5.15
2017-11-11T04:08:40.197Z,2.77
2017-11-11T04:11:08.441Z,4.23
2017-11-11T04:13:36.694Z,3.35
2017-11-11T04:16:04.936Z,3.45
2017-11-11T04:18:33.189Z,2.72
2017-11-11T04:21:01.426Z,3.00
2017-11-11T04:23:29.691Z,6.87
2017-11-11T04:25:57.931Z,3.65
2017-11-11T04:28:26.171Z,4.80
2017-11-11T04:30:54.436Z,4.10
2017-11-11T04:33:22.673Z,4.77
2017-11-11T04:35:51.689Z,4.87
2017-11-11T04:38:19.931Z,6.40
2017-11-11T04:40:48.949Z,5.70
2017-11-11T04:43:17.283Z,4.03
2017-11-11T04:45:45.528Z,7.10
2017-11-11T04:48:13.771Z,6.23
2017-11-11T04:50:42.795Z,5.33
2017-11-11T04:53:11.038Z,7.27
2017-11-11T04:55:39.288Z,4.23
2017-11-11T04:58:07.526Z,4.87
2017-11-11T05:00:35.876Z,5.23
2017-11-11T05:03:04.118Z,5.57
2017-11-11T05:05:33.135Z,5.57
2017-11-11T05:08:01.391Z,5.70
2017-11-11T05:10:30.406Z,6.97
2017-11-11T05:12:58.655Z,6.40
2017-11-11T05:15:27.663Z,8.13
2017-11-11T05:17:55.914Z,5.33
2017-11-11T05:20:24.158Z,5.47
2017-11-11T05:22:52.433Z,7.15
2017-11-11T05:25:20.676Z,7.47
2017-11-11T05:27:48.915Z,5.30
2017-11-11T05:30:18.666Z,5.43
2017-11-11T05:32:46.911Z,7.23
2017-11-11T05:35:15.155Z,7.60
2017-11-11T05:37:43.400Z,5.93
2017-11-11T05:40:11.646Z,6.47
2017-11-11T05:42:40.669Z,8.73
2017-11-11T05:45:08.921Z,6.67
2017-11-11T05:47:37.205Z,6.35
2017-11-11T05:50:05.458Z,6.10
2017-11-11T05:52:34.462Z,6.00
2017-11-11T05:55:03.486Z,7.55
2017-11-11T05:57:31.735Z,8.40
2017-11-11T05:59:59.980Z,6.95
2017-11-11T06:02:28.221Z,4.63
2017-11-11T06:04:56.470Z,6.97
2017-11-11T06:07:24.722Z,5.60
2017-11-11T06:09:53.732Z,9.33
2017-11-11T06:12:21.992Z,7.30
2017-11-11T06:14:51.007Z,8.20
2017-11-11T06:17:19.260Z,6.57
2017-11-11T06:19:48.261Z,4.67
2017-11-11T06:22:17.271Z,9.70
2017-11-11T06:24:45.511Z,7.17
2017-11-11T06:27:13.769Z,7.27
2017-11-11T06:29:42.011Z,7.62
2017-11-11T06:32:10.282Z,8.13
2017-11-11T06:34:38.524Z,6.37
2017-11-11T06:37:07.531Z,8.00
2017-11-11T06:39:36.550Z,6.17
2017-11-11T06:42:04.790Z,7.00
2017-11-11T06:44:33.800Z,5.77
2017-11-11T06:47:02.038Z,6.37
2017-11-11T06:49:31.795Z,6.60
2017-11-11T06:52:00.030Z,6.67
2017-11-11T06:54:28.274Z,5.50
2017-11-11T06:56:56.511Z,9.07
2017-11-11T06:59:24.763Z,7.10
2017-11-11T07:01:53.000Z,10.50
2017-11-11T07:04:21.266Z,8.03
2017-11-11T07:06:49.506Z,9.67
2017-11-11T07:09:17.745Z,5.80
2017-11-11T07:11:45.990Z,7.93
2017-11-11T07:14:14.222Z,7.30
2017-11-11T07:16:43.237Z,6.57
2017-11-11T07:19:11.482Z,10.70
2017-11-11T07:21:40.499Z,8.70
2017-11-11T07:24:08.744Z,5.47
2017-11-11T07:26:36.989Z,10.90
2017-11-11T07:29:05.266Z,7.57
2017-11-11T07:31:33.542Z,6.60
2017-11-11T07:34:01.802Z,6.97
2017-11-11T07:36:30.092Z,7.90
2017-11-11T07:38:58.350Z,7.47
2017-11-11T07:41:26.878Z,6.07
2017-11-11T07:43:55.147Z,8.07
2017-11-11T07:46:23.406Z,8.93
2017-11-11T07:48:51.684Z,6.33
2017-11-11T07:51:19.942Z,5.20
2017-11-11T07:53:48.206Z,6.57
2017-11-11T07:56:16.458Z,7.90
2017-11-11T07:58:44.727Z,6.53
2017-11-11T08:01:13.754Z,7.87
2017-11-11T08:03:42.018Z,6.70
2017-11-11T08:06:10.279Z,8.27
2017-11-11T08:08:38.564Z,6.40
2017-11-11T08:11:06.824Z,7.20
2017-11-11T08:13:35.852Z,8.90
2017-11-11T08:16:04.122Z,5.67
2017-11-11T08:18:32.384Z,6.10
2017-11-11T08:21:00.658Z,6.63
2017-11-11T08:23:28.914Z,4.77
2017-11-11T08:25:57.946Z,6.00
2017-11-11T08:28:26.202Z,4.07
2017-11-11T08:30:54.483Z,5.40
2017-11-11T08:33:22.746Z,3.93
2017-11-11T08:35:51.777Z,4.60
2017-11-11T08:38:20.030Z,3.93
2017-11-11T08:40:48.321Z,3.93
2017-11-11T08:43:16.583Z,4.40
2017-11-11T08:45:44.842Z,5.30
2017-11-11T08:48:13.880Z,4.73
2017-11-11T08:50:42.149Z,7.00
2017-11-11T08:53:10.415Z,5.57
2017-11-11T08:55:38.682Z,7.33
2017-11-11T08:58:06.947Z,6.47
2017-11-11T09:00:35.202Z,5.23
2017-11-11T09:03:04.235Z,5.30
2017-11-11T09:05:32.489Z,5.00
2017-11-11T09:08:00.764Z,5.37
2017-11-11T09:10:29.023Z,4.90
2017-11-11T09:12:58.087Z,5.90
2017-11-11T09:15:26.348Z,5.27
2017-11-11T09:17:54.606Z,4.10
2017-11-11T09:20:22.877Z,6.03
2017-11-11T09:22:51.143Z,5.50
2017-11-11T09:25:19.408Z,5.33
2017-11-11T09:27:48.435Z,5.53
2017-11-11T09:30:16.710Z,4.10
2017-11-11T09:32:44.959Z,4.37
2017-11-11T09:35:13.231Z,5.70
2017-11-11T09:37:41.494Z,5.20
2017-11-11T09:40:10.520Z,3.97
2017-11-11T09:42:38.778Z,3.43
2017-11-11T09:45:07.038Z,4.50
2017-11-11T09:47:36.071Z,3.23
2017-11-11T09:50:04.330Z,2.20
2017-11-11T09:52:32.599Z,2.90
2017-11-11T09:55:00.857Z,3.97
2017-11-11T09:57:29.885Z,4.70
2017-11-11T09:59:58.144Z,3.13
2017-11-11T10:02:26.407Z,3.30
2017-11-11T10:04:55.435Z,3.10
2017-11-11T10:07:23.811Z,2.90
2017-11-11T10:09:53.691Z,2.47
2017-11-11T10:12:22.024Z,3.87
2017-11-11T10:14:50.327Z,3.30
2017-11-11T10:17:19.423Z,2.10
2017-11-11T10:19:48.523Z,2.50
2017-11-11T10:22:16.844Z,2.03
2017-11-11T10:24:45.159Z,2.60
2017-11-11T10:27:13.508Z,1.90
2017-11-11T10:29:41.831Z,2.13
2017-11-11T10:32:10.159Z,3.00
2017-11-11T10:34:38.508Z,1.70
2017-11-11T10:37:06.828Z,2.40
2017-11-11T10:39:35.201Z,2.50
2017-11-11T10:42:03.543Z,3.27
2017-11-11T10:44:31.884Z,2.07
2017-11-11T10:47:00.228Z,2.23
2017-11-11T10:49:28.559Z,2.70
2017-11-11T10:51:56.878Z,3.27
2017-11-11T10:54:25.201Z,2.40
2017-11-11T10:56:54.305Z,3.17
2017-11-11T10:59:22.607Z,4.10
2017-11-11T11:01:50.884Z,4.00
2017-11-11T11:04:19.178Z,3.00
2017-11-11T11:06:47.456Z,3.60
2017-11-11T11:09:15.728Z,4.40
2017-11-11T11:11:44.003Z,3.13
2017-11-11T11:14:12.283Z,3.27
2017-11-11T11:16:55.127Z,3.43
2017-11-11T11:19:23.506Z,2.70
2017-11-11T11:21:51.877Z,3.47
2017-11-11T11:24:20.163Z,3.60
2017-11-11T11:26:48.703Z,3.03
2017-11-11T11:29:17.953Z,2.77
2017-11-11T11:31:46.327Z,3.80
2017-11-11T11:34:17.109Z,3.13
2017-11-11T11:36:45.504Z,2.73
2017-11-11T11:39:13.854Z,1.70
2017-11-11T11:41:42.230Z,3.60
2017-11-11T11:44:10.603Z,3.50
2017-11-11T11:46:38.863Z,4.40
2017-11-11T11:49:07.898Z,3.03
2017-11-11T11:51:36.172Z,4.60
2017-11-11T11:54:04.430Z,4.00
2017-11-11T11:56:32.699Z,3.90
2017-11-11T11:59:01.737Z,3.23
2017-11-11T12:01:30.027Z,4.27
2017-11-11T12:03:58.292Z,3.47
2017-11-11T12:06:26.573Z,4.40
2017-11-11T12:08:54.830Z,3.53
2017-11-11T12:11:23.129Z,3.30
2017-11-11T12:13:51.439Z,2.90
2017-11-11T12:16:20.480Z,3.17
2017-11-11T12:18:48.751Z,3.30
2017-11-11T12:21:17.006Z,2.60
2017-11-11T12:23:45.288Z,4.00
2017-11-11T12:26:13.548Z,3.20
2017-11-11T12:28:42.571Z,3.73
2017-11-11T12:31:10.830Z,2.60
2017-11-11T12:33:39.091Z,2.80
2017-11-11T12:36:07.355Z,2.40
2017-11-11T12:38:36.392Z,2.60
2017-11-11T12:41:04.645Z,3.23
2017-11-11T12:43:32.931Z,5.50
2017-11-11T12:46:01.206Z,3.80
2017-11-11T12:48:29.460Z,2.47
2017-11-11T12:50:57.775Z,2.57
2017-11-11T12:53:26.044Z,2.30
2017-11-11T12:55:54.312Z,2.47
2017-11-11T12:58:22.563Z,2.30
2017-11-11T13:00:51.600Z,1.50
2017-11-11T13:03:19.860Z,3.00
2017-11-11T13:05:48.137Z,1.80
2017-11-11T13:08:16.387Z,1.63
2017-11-11T13:10:44.659Z,2.00
2017-11-11T13:13:13.687Z,1.13
2017-11-11T13:15:41.954Z,1.70
2017-11-11T13:18:10.206Z,1.43
2017-11-11T13:20:38.462Z,1.00
2017-11-11T13:23:06.731Z,1.67
2017-11-11T13:25:34.983Z,1.23
2017-11-11T13:28:03.253Z,2.10
2017-11-11T13:30:31.520Z,2.47
2017-11-11T13:32:59.785Z,2.20
2017-11-11T13:35:28.056Z,2.37
2017-11-11T13:37:56.315Z,2.40
2017-11-11T13:40:24.575Z,2.60
2017-11-11T13:42:53.637Z,2.37
2017-11-11T13:45:21.897Z,2.13
2017-11-11T13:47:50.157Z,2.70
2017-11-11T13:50:18.435Z,3.17
2017-11-11T13:52:46.702Z,3.20
2017-11-11T13:55:14.966Z,5.30
2017-11-11T13:57:43.228Z,2.00
2017-11-11T14:00:12.259Z,5.43
2017-11-11T14:02:40.522Z,2.60
2017-11-11T14:05:08.795Z,3.43
2017-11-11T14:07:37.062Z,3.70
2017-11-11T14:10:06.115Z,4.27
2017-11-11T14:12:35.889Z,4.33
2017-11-11T14:15:04.148Z,3.37
2017-11-11T14:17:32.416Z,2.33
2017-11-11T14:20:00.680Z,4.00
2017-11-11T14:22:29.713Z,4.23
2017-11-11T14:24:57.983Z,4.50
2017-11-11T14:27:26.244Z,4.77
2017-11-11T14:29:54.510Z,4.57
2017-11-11T14:32:23.540Z,4.20
2017-11-11T14:34:51.803Z,4.60
2017-11-11T14:37:20.076Z,4.10
2017-11-11T14:39:48.349Z,3.77
2017-11-11T14:42:16.611Z,2.73
2017-11-11T14:44:44.880Z,4.20
2017-11-11T14:47:13.912Z,2.30
2017-11-11T14:49:42.179Z,3.53
2017-11-11T14:52:10.435Z,3.30
2017-11-11T14:54:38.723Z,3.77
2017-11-11T14:57:06.982Z,3.90
2017-11-11T14:59:35.238Z,3.20
2017-11-11T15:02:04.271Z,4.40
2017-11-11T15:04:32.533Z,2.03
2017-11-11T15:07:00.814Z,3.53
2017-11-11T15:09:29.068Z,3.90
2017-11-11T15:11:58.100Z,3.10
2017-11-11T15:14:26.364Z,3.20
2017-11-11T15:16:54.627Z,2.93
2017-11-11T15:19:22.895Z,4.10
2017-11-11T15:21:51.172Z,3.93
2017-11-11T15:24:19.433Z,2.60
2017-11-11T15:26:48.480Z,2.80
2017-11-11T15:29:16.741Z,3.37
2017-11-11T15:31:45.012Z,2.67
2017-11-11T15:34:13.293Z,4.97
2017-11-11T15:36:41.547Z,3.30
2017-11-11T15:39:09.820Z,3.03
2017-11-11T15:41:38.097Z,3.30
2017-11-11T15:44:07.121Z,4.23
2017-11-11T15:46:35.388Z,3.27
2017-11-11T15:49:03.659Z,5.13
2017-11-11T15:51:31.929Z,5.70
2017-11-11T15:54:00.217Z,5.13
2017-11-11T15:56:28.484Z,4.80
2017-11-11T15:58:56.743Z,3.77
2017-11-11T16:01:25.020Z,4.70
2017-11-11T16:03:53.294Z,4.67
2017-11-11T16:06:21.564Z,5.73
2017-11-11T16:08:50.588Z,5.27
2017-11-11T16:11:18.859Z,4.43
2017-11-11T16:13:47.115Z,4.17
2017-11-11T16:16:16.141Z,5.67
2017-11-11T16:18:44.396Z,5.10
2017-11-11T16:21:12.679Z,2.60
2017-11-11T16:23:40.941Z,5.37
2017-11-11T16:26:09.213Z,5.43
2017-11-11T16:28:37.485Z,4.87
2017-11-11T16:31:05.749Z,5.80
2017-11-11T16:33:34.009Z,3.37
2017-11-11T16:36:02.297Z,5.67
2017-11-11T16:38:31.353Z,5.60
2017-11-11T16:40:59.623Z,5.00
2017-11-11T16:43:27.888Z,6.53
2017-11-11T16:45:56.141Z,5.50
2017-11-11T16:48:24.428Z,6.30
2017-11-11T16:50:52.691Z,5.77
2017-11-11T16:53:20.948Z,5.53
2017-11-11T16:55:49.219Z,4.90
2017-11-11T16:58:17.478Z,5.90
2017-11-11T17:00:45.745Z,5.20
2017-11-11T17:03:14.030Z,5.07
2017-11-11T17:05:42.323Z,4.90
2017-11-11T17:08:10.609Z,4.33
2017-11-11T17:10:39.640Z,3.90
2017-11-11T17:13:07.912Z,3.40
2017-11-11T17:15:36.178Z,2.60
2017-11-11T17:18:04.440Z,2.70
2017-11-11T17:20:32.717Z,3.30
2017-11-11T17:23:00.991Z,3.57
2017-11-11T17:25:29.264Z,4.00
2017-11-11T17:27:58.293Z,3.73
2017-11-11T17:30:26.570Z,3.50
2017-11-11T17:32:54.861Z,2.67
2017-11-11T17:35:23.139Z,3.30
2017-11-11T17:37:51.412Z,3.10
2017-11-11T17:40:19.678Z,3.23
2017-11-11T17:42:47.962Z,3.27
2017-11-11T17:45:16.253Z,4.27
2017-11-11T17:47:44.516Z,3.10
2017-11-11T17:50:12.798Z,3.43
2017-11-11T17:52:41.067Z,3.20
2017-11-11T17:55:09.339Z,3.80
2017-11-11T17:57:37.625Z,4.77
2017-11-11T18:00:06.668Z,4.87
2017-11-11T18:02:35.726Z,5.47
2017-11-11T18:05:04.053Z,4.97
2017-11-11T18:07:32.372Z,6.20
2017-11-11T18:10:00.721Z,5.80
2017-11-11T18:12:29.008Z,6.83
2017-11-11T18:14:57.503Z,6.27
2017-11-11T18:17:25.802Z,6.30
2017-11-11T18:19:54.088Z,6.30
2017-11-11T18:22:23.172Z,5.57
2017-11-11T18:24:51.464Z,5.63
2017-11-11T18:27:20.504Z,5.93
2017-11-11T18:29:48.785Z,7.50
2017-11-11T18:32:17.061Z,8.20
2017-11-11T18:34:45.365Z,8.00
2017-11-11T18:37:13.662Z,8.00
2017-11-11T18:39:42.730Z,10.40
2017-11-11T18:42:11.000Z,6.50
2017-11-11T18:44:39.287Z,5.87
2017-11-11T18:47:07.590Z,5.63
2017-11-11T18:49:36.801Z,4.67
2017-11-11T18:52:05.140Z,3.50
2017-11-11T18:54:33.485Z,3.47
2017-11-11T18:57:01.855Z,3.63
2017-11-11T18:59:30.242Z,1.90
2017-11-11T19:01:58.581Z,1.93
2017-11-11T19:04:27.694Z,2.37
2017-11-11T19:06:56.149Z,2.30
2017-11-11T19:09:25.251Z,1.90
2017-11-11T19:11:53.713Z,1.83
2017-11-11T19:14:22.071Z,2.73
2017-11-11T19:16:50.440Z,2.17
2017-11-11T19:19:18.846Z,2.60
2017-11-11T19:21:47.901Z,1.80
2017-11-11T19:24:16.203Z,2.20
2017-11-11T19:26:44.466Z,1.40
2017-11-11T19:29:13.515Z,2.80
2017-11-11T19:31:42.555Z,3.00
2017-11-11T19:34:10.852Z,2.50
2017-11-11T19:36:39.197Z,2.90
2017-11-11T19:39:07.631Z,5.13
2017-11-11T19:41:36.711Z,6.53
2017-11-11T19:44:05.773Z,2.00
2017-11-11T19:46:34.040Z,2.50
2017-11-11T19:49:02.310Z,1.73
2017-11-11T19:51:30.593Z,2.10
2017-11-11T19:53:58.872Z,1.83
2017-11-11T19:56:27.202Z,1.63
2017-11-11T19:58:56.234Z,2.30
2017-11-11T20:01:24.529Z,1.70
2017-11-11T20:03:52.827Z,2.00
2017-11-11T20:06:21.194Z,2.43
2017-11-11T20:08:49.455Z,2.57
2017-11-11T20:11:17.766Z,2.20
2017-11-11T20:13:46.043Z,2.80
2017-11-11T20:16:14.395Z,3.40
2017-11-11T20:18:42.663Z,2.80
2017-11-11T20:21:11.031Z,4.00
2017-11-11T20:23:40.089Z,2.20
2017-11-11T20:26:09.139Z,1.63
2017-11-11T20:28:37.447Z,1.60
2017-11-11T20:31:05.769Z,1.70
2017-11-11T20:33:34.076Z,1.83
2017-11-11T20:36:02.332Z,2.07
2017-11-11T20:38:30.718Z,1.90
2017-11-11T20:40:59.004Z,2.27
2017-11-11T20:43:27.277Z,24.10
2017-11-11T20:45:55.621Z,2.97
2017-11-11T20:48:23.924Z,2.40
2017-11-11T20:50:52.298Z,2.60
2017-11-11T20:53:20.565Z,2.40
2017-11-11T20:55:48.869Z,5.73
2017-11-11T20:58:17.131Z,5.40
2017-11-11T21:00:45.405Z,2.77
2017-11-11T21:03:13.689Z,4.60
2017-11-11T21:05:41.945Z,7.60
2017-11-11T21:08:10.225Z,5.17
2017-11-11T21:10:38.499Z,3.90
2017-11-11T21:13:06.781Z,4.63
2017-11-11T21:15:35.086Z,4.20
2017-11-11T21:18:03.361Z,4.00
2017-11-11T21:20:31.663Z,4.03
2017-11-11T21:23:00.719Z,3.60
2017-11-11T21:25:29.022Z,3.37
2017-11-11T21:27:58.104Z,4.27
2017-11-11T21:30:26.438Z,3.90
2017-11-11T21:32:54.699Z,4.37
2017-11-11T21:35:23.042Z,6.50
2017-11-11T21:37:51.312Z,5.23
2017-11-11T21:40:19.670Z,5.00
2017-11-11T21:42:47.954Z,5.20
2017-11-11T21:45:16.992Z,5.67
2017-11-11T21:47:46.040Z,4.70
2017-11-11T21:50:14.319Z,5.63
2017-11-11T21:52:42.600Z,5.90
2017-11-11T21:55:10.880Z,5.57
2017-11-11T21:57:39.160Z,6.23
2017-11-11T22:00:07.535Z,5.73
2017-11-11T22:02:35.813Z,5.90
2017-11-11T22:05:04.097Z,5.37
2017-11-11T22:07:32.365Z,6.10
2017-11-11T22:10:00.651Z,5.47
2017-11-11T22:12:28.942Z,5.73
2017-11-11T22:14:58.123Z,6.13
2017-11-11T22:17:26.523Z,6.17
2017-11-11T22:19:55.646Z,6.77
2017-11-11T22:22:23.919Z,6.00
2017-11-11T22:24:52.197Z,6.67
2017-11-11T22:27:20.468Z,7.13
2017-11-11T22:29:48.735Z,6.00
2017-11-11T22:32:17.031Z,8.13
2017-11-11T22:34:45.340Z,6.70
2017-11-11T22:37:13.619Z,7.67
2017-11-11T22:39:41.888Z,8.47
2017-11-11T22:42:10.227Z,7.73
2017-11-11T22:44:38.505Z,6.93
2017-11-11T22:47:06.778Z,8.20
2017-11-11T22:49:35.051Z,8.70
2017-11-11T22:52:03.332Z,8.77
2017-11-11T22:54:31.724Z,9.90
2017-11-11T22:57:00.004Z,8.67
2017-11-11T22:59:28.280Z,9.27
2017-11-11T23:01:56.556Z,9.27
2017-11-11T23:04:24.835Z,8.90
2017-11-11T23:06:53.111Z,9.93
2017-11-11T23:09:21.410Z,10.43
2017-11-11T23:11:49.803Z,11.10
2017-11-11T23:14:18.167Z,11.03
2017-11-11T23:16:46.431Z,13.40
2017-11-11T23:19:14.711Z,12.27
2017-11-11T23:21:42.990Z,15.90
2017-11-11T23:24:11.279Z,18.13
2017-11-11T23:26:39.579Z,19.30
2017-11-11T23:29:08.624Z,18.47
2017-11-11T23:31:36.934Z,19.20
2017-11-11T23:34:06.024Z,16.13
2017-11-11T23:36:34.297Z,14.70
2017-11-11T23:39:02.580Z,16.40
2017-11-11T23:41:30.887Z,14.43
2017-11-11T23:44:00.238Z,14.77
2017-11-11T23:46:29.391Z,12.13
2017-11-11T23:48:57.747Z,13.03
2017-11-11T23:51:26.897Z,13.10
2017-11-11T23:53:55.279Z,11.90
2017-11-11T23:56:24.432Z,12.80
2017-11-11T23:58:52.816Z,12.13
